sensor_id;sensor_type;location;lat;lon;timestamp;pressure;altitude;pressure_sealevel;temperature;humidity
83122;BME280;73002;47.238;9.006;2024-02-28T00:04:50;94683.03;;;10.25;54.76
83122;BME280;73002;47.238;9.006;2024-02-28T00:07:15;94690.66;;;10.05;55.62
83122;BME280;73002;47.238;9.006;2024-02-28T00:09:42;94665.25;;;10.28;54.67
83122;BME280;73002;47.238;9.006;2024-02-28T00:12:08;94681.72;;;10.35;54.56
83122;BME280;73002;47.238;9.006;2024-02-28T00:14:33;94672.16;;;10.43;54.08
83122;BME280;73002;47.238;9.006;2024-02-28T00:45:17;94694.19;;;10.47;54.45
83122;BME280;73002;47.238;9.006;2024-02-28T00:47:45;94709.66;;;10.55;54.64
83122;BME280;73002;47.238;9.006;2024-02-28T00:50:10;94698.78;;;10.45;54.65
83122;BME280;73002;47.238;9.006;2024-02-28T00:52:37;94705.44;;;10.54;54.36
83122;BME280;73002;47.238;9.006;2024-02-28T00:55:02;94704.25;;;10.56;54.18
83122;BME280;73002;47.238;9.006;2024-02-28T02:27:09;94713.91;;;9.70;55.60
83122;BME280;73002;47.238;9.006;2024-02-28T04:23:45;94802.16;;;9.33;58.17
83122;BME280;73002;47.238;9.006;2024-02-28T04:26:10;94800.53;;;9.32;58.60
83122;BME280;73002;47.238;9.006;2024-02-28T04:28:36;94795.59;;;9.08;59.14
83122;BME280;73002;47.238;9.006;2024-02-28T04:31:01;94796.69;;;9.28;58.93
83122;BME280;73002;47.238;9.006;2024-02-28T04:33:28;94795.38;;;9.69;57.64
83122;BME280;73002;47.238;9.006;2024-02-28T04:35:53;94797.50;;;9.80;56.95
83122;BME280;73002;47.238;9.006;2024-02-28T05:20:07;94833.66;;;9.96;58.56
83122;BME280;73002;47.238;9.006;2024-02-28T06:03:19;94904.00;;;9.65;60.30
83122;BME280;73002;47.238;9.006;2024-02-28T06:05:48;94896.59;;;9.62;60.66
83122;BME280;73002;47.238;9.006;2024-02-28T06:08:14;94907.22;;;9.37;61.37
83122;BME280;73002;47.238;9.006;2024-02-28T06:10:39;94908.38;;;9.50;60.69
83122;BME280;73002;47.238;9.006;2024-02-28T06:13:07;94906.88;;;8.65;63.42
83122;BME280;73002;47.238;9.006;2024-02-28T06:46:38;94972.19;;;8.20;65.37
83122;BME280;73002;47.238;9.006;2024-02-28T06:49:03;94975.84;;;8.43;64.90
83122;BME280;73002;47.238;9.006;2024-02-28T06:51:29;94970.94;;;8.08;66.04
83122;BME280;73002;47.238;9.006;2024-02-28T07:06:54;94987.13;;;8.10;65.17
83122;BME280;73002;47.238;9.006;2024-02-28T07:09:20;94980.63;;;8.22;65.14
83122;BME280;73002;47.238;9.006;2024-02-28T07:11:50;94992.66;;;7.18;68.62
83122;BME280;73002;47.238;9.006;2024-02-28T07:14:16;94991.66;;;7.19;68.97
83122;BME280;73002;47.238;9.006;2024-02-28T07:37:03;94981.19;;;8.72;63.51
83122;BME280;73002;47.238;9.006;2024-02-28T07:39:29;94998.66;;;8.47;64.26
83122;BME280;73002;47.238;9.006;2024-02-28T07:41:57;94999.47;;;8.48;63.98
83122;BME280;73002;47.238;9.006;2024-02-28T07:44:22;94990.06;;;8.55;63.30
83122;BME280;73002;47.238;9.006;2024-02-28T07:46:48;94986.22;;;8.74;62.80
83122;BME280;73002;47.238;9.006;2024-02-28T10:03:21;95107.09;;;9.37;59.98
83122;BME280;73002;47.238;9.006;2024-02-28T10:05:50;95098.50;;;9.06;61.00
83122;BME280;73002;47.238;9.006;2024-02-28T10:08:16;95111.97;;;9.32;60.63
83122;BME280;73002;47.238;9.006;2024-02-28T10:19:05;95108.75;;;9.53;59.59
83122;BME280;73002;47.238;9.006;2024-02-28T10:21:30;95106.53;;;9.50;59.82
83122;BME280;73002;47.238;9.006;2024-02-28T10:23:58;95104.44;;;8.52;62.77
83122;BME280;73002;47.238;9.006;2024-02-28T10:26:24;95107.56;;;9.41;60.75
83122;BME280;73002;47.238;9.006;2024-02-28T18:36:22;95180.28;;;10.25;58.02
83122;BME280;73002;47.238;9.006;2024-02-28T20:17:16;95204.47;;;10.64;56.60
83122;BME280;73002;47.238;9.006;2024-02-28T22:31:24;95095.28;;;10.11;58.44
83122;BME280;73002;47.238;9.006;2024-02-28T23:06:42;95095.72;;;10.14;57.83
83122;BME280;73002;47.238;9.006;2024-02-28T23:09:08;95087.13;;;10.14;57.64
